sensor_id;sensor_type;location;lat;lon;timestamp;P1;durP1;ratioP1;P2;durP2;ratioP2
3979;SDS011;2004;52.452;13.120;2023-11-19T00:06:42;187.57;;;14.20;;
3979;SDS011;2004;52.452;13.120;2023-11-19T00:14:33;192.40;;;15.27;;
3979;SDS011;2004;52.452;13.120;2023-11-19T00:22:24;199.17;;;15.50;;
3979;SDS011;2004;52.452;13.120;2023-11-19T00:30:16;193.47;;;16.70;;
3979;SDS011;2004;52.452;13.120;2023-11-19T00:38:06;192.07;;;14.43;;
3979;SDS011;2004;52.452;13.120;2023-11-19T00:45:57;189.20;;;14.20;;
3979;SDS011;2004;52.452;13.120;2023-11-19T00:53:47;189.60;;;13.93;;
3979;SDS011;2004;52.452;13.120;2023-11-19T01:01:38;188.37;;;14.53;;
3979;SDS011;2004;52.452;13.120;2023-11-19T01:09:28;186.80;;;13.93;;
3979;SDS011;2004;52.452;13.120;2023-11-19T01:17:19;188.37;;;13.93;;
3979;SDS011;2004;52.452;13.120;2023-11-19T01:25:10;188.20;;;13.40;;
3979;SDS011;2004;52.452;13.120;2023-11-19T01:33:00;186.20;;;13.20;;
3979;SDS011;2004;52.452;13.120;2023-11-19T01:40:55;184.87;;;13.10;;
3979;SDS011;2004;52.452;13.120;2023-11-19T01:48:47;188.83;;;14.10;;
3979;SDS011;2004;52.452;13.120;2023-11-19T01:56:38;192.23;;;13.63;;
3979;SDS011;2004;52.452;13.120;2023-11-19T02:04:31;188.20;;;13.73;;
3979;SDS011;2004;52.452;13.120;2023-11-19T02:12:22;186.47;;;12.83;;
3979;SDS011;2004;52.452;13.120;2023-11-19T02:20:13;186.37;;;12.70;;
3979;SDS011;2004;52.452;13.120;2023-11-19T02:28:05;191.23;;;13.80;;
3979;SDS011;2004;52.452;13.120;2023-11-19T02:35:59;187.80;;;13.93;;
3979;SDS011;2004;52.452;13.120;2023-11-19T02:43:53;184.23;;;12.50;;
3979;SDS011;2004;52.452;13.120;2023-11-19T02:51:44;183.97;;;12.20;;
3979;SDS011;2004;52.452;13.120;2023-11-19T02:59:38;185.90;;;13.20;;
3979;SDS011;2004;52.452;13.120;2023-11-19T03:07:31;187.47;;;12.57;;
3979;SDS011;2004;52.452;13.120;2023-11-19T03:15:22;186.80;;;12.60;;
3979;SDS011;2004;52.452;13.120;2023-11-19T03:23:12;184.80;;;11.40;;
3979;SDS011;2004;52.452;13.120;2023-11-19T03:31:06;185.37;;;11.50;;
3979;SDS011;2004;52.452;13.120;2023-11-19T03:38:58;187.87;;;13.67;;
3979;SDS011;2004;52.452;13.120;2023-11-19T03:46:48;186.17;;;12.43;;
3979;SDS011;2004;52.452;13.120;2023-11-19T03:54:39;186.73;;;13.00;;
3979;SDS011;2004;52.452;13.120;2023-11-19T04:02:30;187.37;;;13.37;;
3979;SDS011;2004;52.452;13.120;2023-11-19T04:10:21;187.53;;;12.50;;
3979;SDS011;2004;52.452;13.120;2023-11-19T04:18:12;186.67;;;13.30;;
3979;SDS011;2004;52.452;13.120;2023-11-19T04:26:03;189.07;;;13.00;;
3979;SDS011;2004;52.452;13.120;2023-11-19T04:33:54;186.37;;;12.63;;
3979;SDS011;2004;52.452;13.120;2023-11-19T04:41:46;188.57;;;13.23;;
3979;SDS011;2004;52.452;13.120;2023-11-19T04:49:41;187.00;;;12.77;;
3979;SDS011;2004;52.452;13.120;2023-11-19T04:57:37;186.07;;;11.53;;
3979;SDS011;2004;52.452;13.120;2023-11-19T05:05:30;185.53;;;11.77;;
3979;SDS011;2004;52.452;13.120;2023-11-19T05:13:23;184.90;;;11.10;;
3979;SDS011;2004;52.452;13.120;2023-11-19T05:21:14;185.67;;;11.00;;
3979;SDS011;2004;52.452;13.120;2023-11-19T05:29:05;184.77;;;10.33;;
3979;SDS011;2004;52.452;13.120;2023-11-19T05:36:56;184.33;;;11.57;;
3979;SDS011;2004;52.452;13.120;2023-11-19T05:44:51;185.20;;;11.97;;
3979;SDS011;2004;52.452;13.120;2023-11-19T05:52:42;185.17;;;11.30;;
3979;SDS011;2004;52.452;13.120;2023-11-19T06:00:33;189.30;;;12.47;;
3979;SDS011;2004;52.452;13.120;2023-11-19T06:08:25;185.17;;;12.10;;
3979;SDS011;2004;52.452;13.120;2023-11-19T06:16:17;187.10;;;12.07;;
3979;SDS011;2004;52.452;13.120;2023-11-19T06:24:10;189.20;;;12.20;;
3979;SDS011;2004;52.452;13.120;2023-11-19T06:32:04;187.47;;;12.33;;
3979;SDS011;2004;52.452;13.120;2023-11-19T06:39:58;197.47;;;12.37;;
3979;SDS011;2004;52.452;13.120;2023-11-19T06:47:49;186.60;;;12.30;;
3979;SDS011;2004;52.452;13.120;2023-11-19T06:55:40;186.07;;;12.27;;
3979;SDS011;2004;52.452;13.120;2023-11-19T07:03:30;189.73;;;11.20;;
3979;SDS011;2004;52.452;13.120;2023-11-19T07:11:21;184.67;;;10.13;;
3979;SDS011;2004;52.452;13.120;2023-11-19T07:19:12;185.50;;;11.53;;
3979;SDS011;2004;52.452;13.120;2023-11-19T07:27:03;188.13;;;11.13;;
3979;SDS011;2004;52.452;13.120;2023-11-19T07:34:54;187.97;;;12.47;;
3979;SDS011;2004;52.452;13.120;2023-11-19T07:42:46;186.07;;;12.20;;
3979;SDS011;2004;52.452;13.120;2023-11-19T07:50:36;188.13;;;12.23;;
3979;SDS011;2004;52.452;13.120;2023-11-19T07:58:27;185.67;;;11.57;;
3979;SDS011;2004;52.452;13.120;2023-11-19T08:06:18;192.00;;;11.87;;
3979;SDS011;2004;52.452;13.120;2023-11-19T08:14:09;186.37;;;12.03;;
3979;SDS011;2004;52.452;13.120;2023-11-19T08:21:59;184.83;;;10.60;;
3979;SDS011;2004;52.452;13.120;2023-11-19T08:29:50;187.23;;;12.27;;
3979;SDS011;2004;52.452;13.120;2023-11-19T08:37:40;187.77;;;11.93;;
3979;SDS011;2004;52.452;13.120;2023-11-19T08:45:35;187.17;;;12.10;;
3979;SDS011;2004;52.452;13.120;2023-11-19T08:53:26;191.70;;;11.00;;
3979;SDS011;2004;52.452;13.120;2023-11-19T09:01:17;183.00;;;10.93;;
3979;SDS011;2004;52.452;13.120;2023-11-19T09:09:08;189.03;;;12.87;;
3979;SDS011;2004;52.452;13.120;2023-11-19T09:16:59;185.37;;;10.47;;
3979;SDS011;2004;52.452;13.120;2023-11-19T09:24:57;183.57;;;10.20;;
3979;SDS011;2004;52.452;13.120;2023-11-19T09:32:50;187.00;;;9.70;;
3979;SDS011;2004;52.452;13.120;2023-11-19T09:40:43;182.43;;;8.80;;
3979;SDS011;2004;52.452;13.120;2023-11-19T09:48:35;183.27;;;9.23;;
3979;SDS011;2004;52.452;13.120;2023-11-19T09:56:29;198.03;;;8.97;;
3979;SDS011;2004;52.452;13.120;2023-11-19T10:04:20;195.93;;;9.20;;
3979;SDS011;2004;52.452;13.120;2023-11-19T10:12:15;198.40;;;10.73;;
3979;SDS011;2004;52.452;13.120;2023-11-19T10:20:11;196.70;;;11.30;;
3979;SDS011;2004;52.452;13.120;2023-11-19T10:28:03;199.67;;;11.37;;
3979;SDS011;2004;52.452;13.120;2023-11-19T10:35:55;196.13;;;11.13;;
3979;SDS011;2004;52.452;13.120;2023-11-19T10:43:47;200.10;;;11.63;;
3979;SDS011;2004;52.452;13.120;2023-11-19T10:51:42;196.23;;;11.50;;
3979;SDS011;2004;52.452;13.120;2023-11-19T10:59:36;198.97;;;10.97;;
3979;SDS011;2004;52.452;13.120;2023-11-19T11:07:29;199.93;;;10.00;;
3979;SDS011;2004;52.452;13.120;2023-11-19T11:15:21;199.10;;;10.80;;
3979;SDS011;2004;52.452;13.120;2023-11-19T11:40:15;194.97;;;11.37;;
3979;SDS011;2004;52.452;13.120;2023-11-19T11:56:01;199.57;;;12.57;;
3979;SDS011;2004;52.452;13.120;2023-11-19T12:04:00;192.23;;;10.97;;
3979;SDS011;2004;52.452;13.120;2023-11-19T12:12:17;212.67;;;11.20;;
3979;SDS011;2004;52.452;13.120;2023-11-19T12:20:18;197.30;;;10.40;;
3979;SDS011;2004;52.452;13.120;2023-11-19T12:28:31;198.60;;;11.47;;
3979;SDS011;2004;52.452;13.120;2023-11-19T12:36:25;210.73;;;12.10;;
3979;SDS011;2004;52.452;13.120;2023-11-19T12:44:28;195.10;;;11.80;;
3979;SDS011;2004;52.452;13.120;2023-11-19T12:52:20;202.83;;;10.70;;
3979;SDS011;2004;52.452;13.120;2023-11-19T13:00:20;207.97;;;12.77;;
3979;SDS011;2004;52.452;13.120;2023-11-19T13:08:14;212.50;;;11.40;;
3979;SDS011;2004;52.452;13.120;2023-11-19T13:16:07;191.17;;;10.53;;
3979;SDS011;2004;52.452;13.120;2023-11-19T13:23:59;197.20;;;11.43;;
3979;SDS011;2004;52.452;13.120;2023-11-19T13:31:49;204.97;;;11.90;;
3979;SDS011;2004;52.452;13.120;2023-11-19T13:39:43;207.37;;;12.37;;
3979;SDS011;2004;52.452;13.120;2023-11-19T13:47:38;205.47;;;11.47;;
3979;SDS011;2004;52.452;13.120;2023-11-19T13:55:35;207.23;;;12.33;;
3979;SDS011;2004;52.452;13.120;2023-11-19T14:03:29;209.80;;;12.27;;
3979;SDS011;2004;52.452;13.120;2023-11-19T14:11:23;209.20;;;11.93;;
3979;SDS011;2004;52.452;13.120;2023-11-19T14:19:16;209.60;;;13.87;;
3979;SDS011;2004;52.452;13.120;2023-11-19T14:27:07;210.10;;;14.97;;
3979;SDS011;2004;52.452;13.120;2023-11-19T14:35:11;210.53;;;12.73;;
3979;SDS011;2004;52.452;13.120;2023-11-19T14:43:05;213.67;;;11.60;;
3979;SDS011;2004;52.452;13.120;2023-11-19T14:50:56;208.40;;;13.83;;
3979;SDS011;2004;52.452;13.120;2023-11-19T14:58:52;213.37;;;12.50;;
3979;SDS011;2004;52.452;13.120;2023-11-19T15:06:51;216.73;;;11.87;;
3979;SDS011;2004;52.452;13.120;2023-11-19T15:14:41;194.23;;;11.50;;
3979;SDS011;2004;52.452;13.120;2023-11-19T15:22:38;207.40;;;13.00;;
3979;SDS011;2004;52.452;13.120;2023-11-19T15:30:32;205.53;;;12.40;;
3979;SDS011;2004;52.452;13.120;2023-11-19T15:38:28;207.87;;;13.37;;
3979;SDS011;2004;52.452;13.120;2023-11-19T15:46:19;212.67;;;12.40;;
3979;SDS011;2004;52.452;13.120;2023-11-19T15:54:10;208.00;;;13.33;;
3979;SDS011;2004;52.452;13.120;2023-11-19T16:02:06;220.20;;;13.23;;
3979;SDS011;2004;52.452;13.120;2023-11-19T16:09:59;202.13;;;13.37;;
3979;SDS011;2004;52.452;13.120;2023-11-19T16:17:54;204.83;;;11.93;;
3979;SDS011;2004;52.452;13.120;2023-11-19T16:25:47;208.87;;;13.23;;
3979;SDS011;2004;52.452;13.120;2023-11-19T16:33:40;204.30;;;12.67;;
3979;SDS011;2004;52.452;13.120;2023-11-19T16:41:31;209.37;;;13.20;;
3979;SDS011;2004;52.452;13.120;2023-11-19T16:49:22;198.33;;;11.90;;
3979;SDS011;2004;52.452;13.120;2023-11-19T16:57:12;197.13;;;11.77;;
3979;SDS011;2004;52.452;13.120;2023-11-19T17:05:06;218.10;;;18.60;;
3979;SDS011;2004;52.452;13.120;2023-11-19T17:12:57;197.97;;;11.83;;
3979;SDS011;2004;52.452;13.120;2023-11-19T17:20:51;204.50;;;12.03;;
3979;SDS011;2004;52.452;13.120;2023-11-19T17:28:50;210.97;;;14.43;;
3979;SDS011;2004;52.452;13.120;2023-11-19T17:36:40;202.47;;;13.40;;
3979;SDS011;2004;52.452;13.120;2023-11-19T17:44:31;211.07;;;14.20;;
3979;SDS011;2004;52.452;13.120;2023-11-19T17:52:22;244.47;;;25.03;;
3979;SDS011;2004;52.452;13.120;2023-11-19T18:00:14;241.60;;;21.80;;
3979;SDS011;2004;52.452;13.120;2023-11-19T18:08:07;212.90;;;14.60;;
3979;SDS011;2004;52.452;13.120;2023-11-19T18:16:01;292.63;;;48.20;;
3979;SDS011;2004;52.452;13.120;2023-11-19T18:23:52;247.13;;;36.07;;
3979;SDS011;2004;52.452;13.120;2023-11-19T18:31:45;212.53;;;24.50;;
3979;SDS011;2004;52.452;13.120;2023-11-19T18:39:47;204.37;;;13.90;;
3979;SDS011;2004;52.452;13.120;2023-11-19T18:47:41;197.67;;;12.80;;
3979;SDS011;2004;52.452;13.120;2023-11-19T18:55:34;206.23;;;14.13;;
3979;SDS011;2004;52.452;13.120;2023-11-19T19:03:25;216.80;;;12.33;;
3979;SDS011;2004;52.452;13.120;2023-11-19T19:11:20;202.03;;;12.03;;
3979;SDS011;2004;52.452;13.120;2023-11-19T19:19:12;200.60;;;11.97;;
3979;SDS011;2004;52.452;13.120;2023-11-19T19:27:08;195.20;;;12.07;;
3979;SDS011;2004;52.452;13.120;2023-11-19T19:34:58;203.40;;;11.90;;
3979;SDS011;2004;52.452;13.120;2023-11-19T19:43:08;202.27;;;11.40;;
3979;SDS011;2004;52.452;13.120;2023-11-19T19:50:59;211.87;;;11.27;;
3979;SDS011;2004;52.452;13.120;2023-11-19T19:58:51;192.47;;;11.63;;
3979;SDS011;2004;52.452;13.120;2023-11-19T20:06:43;190.57;;;11.37;;
3979;SDS011;2004;52.452;13.120;2023-11-19T20:14:40;210.67;;;11.47;;
3979;SDS011;2004;52.452;13.120;2023-11-19T20:22:34;198.07;;;11.43;;
3979;SDS011;2004;52.452;13.120;2023-11-19T20:30:32;198.83;;;10.90;;
3979;SDS011;2004;52.452;13.120;2023-11-19T20:38:25;214.33;;;11.00;;
3979;SDS011;2004;52.452;13.120;2023-11-19T20:46:17;200.40;;;10.77;;
3979;SDS011;2004;52.452;13.120;2023-11-19T20:54:08;198.37;;;11.27;;
3979;SDS011;2004;52.452;13.120;2023-11-19T21:02:01;204.67;;;11.20;;
3979;SDS011;2004;52.452;13.120;2023-11-19T21:09:55;203.70;;;11.30;;
3979;SDS011;2004;52.452;13.120;2023-11-19T21:17:50;218.10;;;11.40;;
3979;SDS011;2004;52.452;13.120;2023-11-19T21:25:48;199.10;;;10.67;;
3979;SDS011;2004;52.452;13.120;2023-11-19T21:33:44;203.70;;;10.80;;
3979;SDS011;2004;52.452;13.120;2023-11-19T21:41:35;204.27;;;11.20;;
3979;SDS011;2004;52.452;13.120;2023-11-19T21:49:28;200.77;;;11.00;;
3979;SDS011;2004;52.452;13.120;2023-11-19T21:57:25;191.43;;;10.17;;
3979;SDS011;2004;52.452;13.120;2023-11-19T22:05:16;195.40;;;10.47;;
3979;SDS011;2004;52.452;13.120;2023-11-19T22:13:10;190.03;;;9.57;;
3979;SDS011;2004;52.452;13.120;2023-11-19T22:21:03;205.73;;;9.73;;
3979;SDS011;2004;52.452;13.120;2023-11-19T22:28:54;197.17;;;10.77;;
3979;SDS011;2004;52.452;13.120;2023-11-19T22:36:46;197.30;;;10.83;;
3979;SDS011;2004;52.452;13.120;2023-11-19T22:44:37;206.50;;;11.10;;
3979;SDS011;2004;52.452;13.120;2023-11-19T22:52:30;192.20;;;11.13;;
3979;SDS011;2004;52.452;13.120;2023-11-19T23:00:31;192.30;;;10.70;;
3979;SDS011;2004;52.452;13.120;2023-11-19T23:08:26;208.87;;;12.00;;
3979;SDS011;2004;52.452;13.120;2023-11-19T23:16:17;203.53;;;10.50;;
3979;SDS011;2004;52.452;13.120;2023-11-19T23:24:08;197.27;;;10.10;;
3979;SDS011;2004;52.452;13.120;2023-11-19T23:31:59;195.37;;;10.80;;
3979;SDS011;2004;52.452;13.120;2023-11-19T23:39:50;205.73;;;12.13;;
3979;SDS011;2004;52.452;13.120;2023-11-19T23:47:44;202.67;;;11.67;;
3979;SDS011;2004;52.452;13.120;2023-11-19T23:55:34;196.10;;;10.70;;
